createdAt,value
2017-09-03T00:01:33.378Z,69.60
2017-09-03T00:04:00.966Z,69.79
2017-09-03T00:06:32.256Z,70.88
2017-09-03T00:09:00.124Z,71.22
2017-09-03T00:11:27.601Z,71.30
2017-09-03T00:13:55.069Z,71.44
2017-09-03T00:16:22.581Z,71.39
2017-09-03T00:18:50.059Z,71.09
2017-09-03T00:21:17.568Z,70.94
2017-09-03T00:23:45.837Z,70.48
2017-09-03T00:26:13.336Z,70.08
2017-09-03T00:28:40.823Z,70.24
2017-09-03T00:31:08.316Z,70.03
2017-09-03T00:33:35.794Z,70.36
2017-09-03T00:36:03.316Z,70.57
2017-09-03T00:38:30.794Z,70.48
2017-09-03T00:40:58.285Z,71.03
2017-09-03T00:43:25.806Z,71.48
2017-09-03T00:45:53.295Z,71.96
2017-09-03T00:48:20.781Z,72.13
2017-09-03T00:50:48.278Z,72.39
2017-09-03T00:53:16.054Z,72.51
2017-09-03T00:55:43.568Z,72.40
2017-09-03T00:58:11.019Z,72.46
2017-09-03T01:00:38.514Z,72.22
2017-09-03T01:03:05.990Z,71.83
2017-09-03T01:05:33.490Z,71.47
2017-09-03T01:08:01.024Z,71.19
2017-09-03T01:10:28.538Z,71.25
2017-09-03T01:12:56.003Z,71.35
2017-09-03T01:15:23.493Z,71.35
2017-09-03T01:17:50.979Z,71.37
2017-09-03T01:20:18.491Z,71.30
2017-09-03T01:22:45.945Z,70.99
2017-09-03T01:25:13.453Z,70.82
2017-09-03T01:27:40.937Z,71.11
2017-09-03T01:30:08.438Z,71.51
2017-09-03T01:32:35.923Z,71.56
2017-09-03T01:35:03.423Z,71.72
2017-09-03T01:37:30.928Z,71.84
2017-09-03T01:39:58.437Z,71.71
2017-09-03T01:42:25.914Z,71.81
2017-09-03T01:44:53.415Z,71.95
2017-09-03T01:47:20.865Z,71.23
2017-09-03T01:49:48.385Z,71.32
2017-09-03T01:52:15.839Z,71.92
2017-09-03T01:54:43.361Z,72.01
2017-09-03T01:57:10.875Z,72.44
2017-09-03T01:59:38.358Z,72.63
2017-09-03T02:02:05.857Z,72.30
2017-09-03T02:04:33.329Z,72.24
2017-09-03T02:07:00.831Z,72.09
2017-09-03T02:09:28.282Z,73.18
2017-09-03T02:11:55.797Z,73.08
2017-09-03T02:14:23.265Z,72.36
2017-09-03T02:16:51.018Z,72.10
2017-09-03T02:19:18.512Z,71.37
2017-09-03T02:21:45.990Z,71.00
2017-09-03T02:24:13.497Z,71.05
2017-09-03T02:26:40.974Z,71.54
2017-09-03T02:29:08.503Z,72.51
2017-09-03T02:31:35.971Z,72.71
2017-09-03T02:34:04.285Z,72.24
2017-09-03T02:36:31.755Z,71.44
2017-09-03T02:38:59.257Z,71.65
2017-09-03T02:41:26.748Z,71.62
2017-09-03T02:43:54.253Z,71.29
2017-09-03T02:46:21.763Z,71.53
2017-09-03T02:48:49.263Z,72.07
2017-09-03T02:51:16.756Z,71.74
2017-09-03T02:53:44.223Z,71.26
2017-09-03T02:56:11.726Z,70.75
2017-09-03T02:58:39.208Z,70.91
2017-09-03T03:01:06.690Z,71.26
2017-09-03T03:03:39.103Z,71.46
2017-09-03T03:06:06.603Z,71.49
2017-09-03T03:08:35.452Z,71.83
2017-09-03T03:11:02.959Z,71.98
2017-09-03T03:13:30.474Z,70.95
2017-09-03T03:16:04.811Z,70.48
2017-09-03T03:18:32.342Z,70.98
2017-09-03T03:20:59.838Z,71.67
2017-09-03T03:23:27.387Z,72.52
2017-09-03T03:25:54.888Z,72.63
2017-09-03T03:28:22.406Z,73.06
2017-09-03T03:30:49.901Z,73.77
2017-09-03T03:33:17.401Z,73.70
2017-09-03T03:35:44.885Z,73.58
2017-09-03T03:38:13.171Z,73.33
2017-09-03T03:40:40.653Z,73.27
2017-09-03T03:43:08.139Z,73.37
2017-09-03T03:45:35.619Z,73.22
2017-09-03T03:48:03.170Z,72.84
2017-09-03T03:50:30.635Z,72.24
2017-09-03T03:52:58.161Z,71.87
2017-09-03T03:55:26.156Z,73.83
2017-09-03T03:57:53.659Z,75.39
2017-09-03T04:00:21.121Z,76.17
2017-09-03T04:02:48.633Z,76.32
2017-09-03T04:05:16.090Z,76.60
2017-09-03T04:07:43.581Z,76.48
2017-09-03T04:10:11.043Z,76.00
2017-09-03T04:12:39.503Z,75.23
2017-09-03T04:15:06.962Z,75.01
2017-09-03T04:17:34.445Z,74.83
2017-09-03T04:20:09.775Z,74.37
2017-09-03T04:22:37.326Z,73.41
2017-09-03T04:25:05.026Z,73.56
2017-09-03T04:27:32.514Z,74.18
2017-09-03T04:29:59.984Z,74.44
2017-09-03T04:32:27.468Z,74.28
2017-09-03T04:34:55.029Z,73.08
2017-09-03T04:37:22.522Z,73.07
2017-09-03T04:39:50.030Z,73.14
2017-09-03T04:42:17.497Z,73.45
2017-09-03T04:44:45.021Z,73.71
2017-09-03T04:47:12.483Z,73.36
2017-09-03T04:49:39.989Z,74.70
2017-09-03T04:52:07.475Z,75.40
2017-09-03T04:54:34.975Z,76.30
2017-09-03T04:57:02.443Z,76.96
2017-09-03T04:59:29.968Z,76.70
2017-09-03T05:01:57.446Z,76.79
2017-09-03T05:04:24.934Z,77.32
2017-09-03T05:06:52.411Z,76.28
2017-09-03T05:09:19.945Z,74.56
2017-09-03T05:11:47.409Z,73.81
2017-09-03T05:14:14.877Z,73.42
2017-09-03T05:16:42.365Z,73.09
2017-09-03T05:19:09.827Z,73.21
2017-09-03T05:21:37.328Z,73.86
2017-09-03T05:24:05.404Z,73.96
2017-09-03T05:26:32.916Z,73.77
2017-09-03T05:29:00.391Z,74.19
2017-09-03T05:31:27.873Z,74.57
2017-09-03T05:33:55.335Z,74.90
2017-09-03T05:36:22.855Z,75.25
2017-09-03T05:38:50.749Z,74.81
2017-09-03T05:41:18.241Z,74.63
2017-09-03T05:43:45.714Z,74.54
2017-09-03T05:46:13.207Z,74.50
2017-09-03T05:48:40.675Z,75.16
2017-09-03T05:51:08.190Z,75.57
2017-09-03T05:53:35.649Z,75.67
2017-09-03T05:56:03.161Z,76.41
2017-09-03T05:58:30.674Z,76.58
2017-09-03T06:00:58.155Z,75.24
2017-09-03T06:03:25.642Z,74.17
2017-09-03T06:05:53.093Z,74.63
2017-09-03T06:08:20.600Z,75.37
2017-09-03T06:10:48.077Z,74.94
2017-09-03T06:13:15.582Z,74.63
2017-09-03T06:15:43.069Z,75.94
2017-09-03T06:18:10.573Z,77.29
2017-09-03T06:20:38.043Z,77.43
2017-09-03T06:23:05.530Z,77.33
2017-09-03T06:25:33.042Z,77.38
2017-09-03T06:28:00.551Z,77.26
2017-09-03T06:30:28.042Z,76.66
2017-09-03T06:32:55.616Z,75.20
2017-09-03T06:35:23.126Z,74.20
2017-09-03T06:37:50.630Z,73.61
2017-09-03T06:40:18.104Z,73.57
2017-09-03T06:42:45.625Z,73.46
2017-09-03T06:45:13.097Z,73.60
2017-09-03T06:47:40.601Z,73.59
2017-09-03T06:50:08.050Z,73.43
2017-09-03T06:52:35.567Z,73.51
2017-09-03T06:55:03.061Z,73.02
2017-09-03T06:57:30.572Z,72.62
2017-09-03T06:59:58.095Z,72.14
2017-09-03T07:02:25.587Z,72.66
2017-09-03T07:04:53.870Z,72.65
2017-09-03T07:07:21.342Z,72.45
2017-09-03T07:09:48.866Z,73.15
2017-09-03T07:12:16.326Z,73.84
2017-09-03T07:14:43.809Z,74.37
2017-09-03T07:17:11.273Z,73.74
2017-09-03T07:19:38.767Z,72.53
2017-09-03T07:22:06.254Z,71.92
2017-09-03T07:24:33.763Z,72.31
2017-09-03T07:27:01.236Z,71.99
2017-09-03T07:29:28.708Z,71.96
2017-09-03T07:31:56.254Z,71.54
2017-09-03T07:34:23.724Z,71.42
2017-09-03T07:36:51.226Z,70.99
2017-09-03T07:39:18.723Z,70.16
2017-09-03T07:41:46.221Z,69.92
2017-09-03T07:44:13.697Z,69.47
2017-09-03T07:46:41.219Z,69.47
2017-09-03T07:49:08.681Z,69.38
2017-09-03T07:51:36.178Z,69.54
2017-09-03T07:54:03.677Z,68.95
2017-09-03T07:56:31.168Z,68.78
2017-09-03T07:58:58.664Z,68.68
2017-09-03T08:01:26.173Z,68.75
2017-09-03T08:03:53.630Z,68.91
2017-09-03T08:06:21.112Z,68.68
2017-09-03T08:08:48.599Z,68.55
2017-09-03T08:11:16.116Z,67.97
2017-09-03T08:13:43.592Z,67.75
2017-09-03T08:16:11.108Z,67.18
2017-09-03T08:18:38.584Z,67.09
2017-09-03T08:21:06.110Z,67.52
2017-09-03T08:23:33.639Z,70.06
2017-09-03T08:26:01.134Z,70.96
2017-09-03T08:28:28.634Z,70.67
2017-09-03T08:30:56.588Z,70.19
2017-09-03T08:33:24.099Z,70.13
2017-09-03T08:35:51.571Z,71.48
2017-09-03T08:38:19.077Z,74.47
2017-09-03T08:40:46.558Z,74.87
2017-09-03T08:43:14.042Z,69.59
2017-09-03T08:45:41.508Z,68.21
2017-09-03T08:48:08.999Z,67.51
2017-09-03T08:50:36.586Z,69.52
2017-09-03T08:53:05.094Z,67.88
2017-09-03T08:55:32.577Z,68.54
2017-09-03T08:58:00.104Z,69.99
2017-09-03T09:00:27.587Z,69.32
2017-09-03T09:02:55.127Z,68.83
2017-09-03T09:05:22.642Z,69.77
2017-09-03T09:07:50.149Z,65.70
2017-09-03T09:10:17.629Z,67.53
2017-09-03T09:12:45.135Z,66.11
2017-09-03T09:15:12.627Z,65.03
2017-09-03T09:17:40.124Z,65.41
2017-09-03T09:20:07.595Z,65.70
2017-09-03T09:22:35.113Z,63.24
2017-09-03T09:25:02.596Z,62.84
2017-09-03T09:27:30.925Z,62.33
2017-09-03T09:29:58.435Z,63.42
2017-09-03T09:32:25.914Z,65.03
2017-09-03T09:34:53.415Z,64.70
2017-09-03T09:37:21.016Z,65.31
2017-09-03T09:39:48.542Z,64.71
2017-09-03T09:42:16.090Z,64.79
2017-09-03T09:44:43.618Z,64.76
2017-09-03T09:47:11.125Z,63.75
2017-09-03T09:49:38.659Z,65.11
2017-09-03T09:52:06.121Z,65.23
2017-09-03T09:54:33.613Z,63.79
2017-09-03T09:57:01.084Z,64.68
2017-09-03T09:59:28.601Z,63.12
2017-09-03T10:01:56.263Z,62.25
2017-09-03T10:04:23.734Z,62.98
2017-09-03T10:06:51.273Z,62.37
2017-09-03T10:09:18.807Z,62.92
2017-09-03T10:11:47.352Z,61.86
2017-09-03T10:14:15.801Z,62.65
2017-09-03T10:16:43.314Z,62.07
2017-09-03T10:19:10.806Z,61.27
2017-09-03T10:21:38.337Z,61.29
2017-09-03T10:24:05.838Z,60.40
2017-09-03T10:26:33.341Z,60.13
2017-09-03T10:29:00.835Z,59.37
2017-09-03T10:31:28.304Z,60.71
2017-09-03T10:33:55.833Z,60.03
2017-09-03T10:36:23.352Z,59.97
2017-09-03T10:38:50.873Z,58.64
2017-09-03T10:41:18.361Z,57.03
2017-09-03T10:43:45.842Z,56.20
2017-09-03T10:46:13.331Z,55.91
2017-09-03T10:48:40.823Z,56.98
2017-09-03T10:51:12.759Z,57.24
2017-09-03T10:53:40.310Z,57.02
2017-09-03T10:56:07.795Z,58.28
2017-09-03T10:58:35.334Z,57.50
2017-09-03T11:01:02.836Z,57.37
2017-09-03T11:03:30.304Z,57.35
2017-09-03T11:05:57.818Z,57.01
2017-09-03T11:08:25.334Z,58.11
2017-09-03T11:10:52.856Z,57.25
2017-09-03T11:13:20.503Z,57.94
2017-09-03T11:15:47.989Z,56.77
2017-09-03T11:18:15.445Z,56.92
2017-09-03T11:20:42.938Z,57.18
2017-09-03T11:23:10.429Z,58.03
2017-09-03T11:25:38.736Z,56.47
2017-09-03T11:28:06.245Z,54.84
2017-09-03T11:30:33.749Z,54.65
2017-09-03T11:33:01.230Z,51.92
2017-09-03T11:35:28.764Z,52.89
2017-09-03T11:37:56.268Z,53.69
2017-09-03T11:40:25.055Z,55.06
2017-09-03T11:42:52.553Z,52.46
2017-09-03T11:45:20.049Z,54.38
2017-09-03T11:47:47.541Z,54.52
2017-09-03T11:50:15.008Z,53.73
2017-09-03T11:52:42.515Z,52.85
2017-09-03T11:55:10.027Z,53.15
2017-09-03T11:57:37.559Z,54.24
2017-09-03T12:00:05.028Z,53.77
2017-09-03T12:02:32.533Z,53.41
2017-09-03T12:04:59.991Z,54.83
2017-09-03T12:07:27.478Z,54.05
2017-09-03T12:09:54.945Z,54.11
2017-09-03T12:12:22.462Z,54.47
2017-09-03T12:14:49.973Z,54.17
2017-09-03T12:17:17.480Z,53.86
2017-09-03T12:19:44.973Z,53.99
2017-09-03T12:22:12.426Z,51.62
2017-09-03T12:24:40.462Z,52.21
2017-09-03T12:27:07.922Z,53.33
2017-09-03T12:29:35.416Z,53.82
2017-09-03T12:32:02.962Z,53.89
2017-09-03T12:34:30.504Z,54.11
2017-09-03T12:36:58.046Z,53.88
2017-09-03T12:39:25.818Z,54.37
2017-09-03T12:41:53.291Z,54.28
2017-09-03T12:44:20.790Z,54.48
2017-09-03T12:46:48.260Z,53.98
2017-09-03T12:49:15.789Z,53.84
2017-09-03T12:51:43.311Z,53.12
2017-09-03T12:54:10.802Z,52.19
2017-09-03T12:56:38.302Z,51.55
2017-09-03T12:59:05.776Z,51.87
2017-09-03T13:01:33.546Z,52.17
2017-09-03T13:04:01.783Z,51.93
2017-09-03T13:06:29.265Z,52.27
2017-09-03T13:08:56.747Z,52.29
2017-09-03T13:11:24.217Z,51.16
2017-09-03T13:13:51.745Z,51.16
2017-09-03T13:16:19.216Z,50.81
2017-09-03T13:18:46.731Z,51.34
2017-09-03T13:21:14.223Z,50.44
2017-09-03T13:23:41.743Z,50.68
2017-09-03T13:26:09.231Z,49.74
2017-09-03T13:28:36.816Z,48.19
2017-09-03T13:31:04.736Z,48.77
2017-09-03T13:33:32.259Z,48.79
2017-09-03T13:35:59.834Z,48.60
2017-09-03T13:38:27.506Z,48.17
2017-09-03T13:40:55.045Z,46.83
2017-09-03T13:43:22.526Z,47.11
2017-09-03T13:45:50.005Z,46.83
2017-09-03T13:48:17.484Z,47.31
2017-09-03T13:50:45.034Z,47.61
2017-09-03T13:53:12.562Z,46.04
2017-09-03T13:55:40.104Z,45.73
2017-09-03T13:58:07.596Z,44.40
2017-09-03T14:00:35.111Z,44.61
2017-09-03T14:03:02.612Z,44.34
2017-09-03T14:05:31.247Z,44.13
2017-09-03T14:07:58.740Z,44.25
2017-09-03T14:10:26.247Z,43.35
2017-09-03T14:12:53.750Z,41.76
2017-09-03T14:15:21.205Z,42.60
2017-09-03T14:17:48.730Z,42.24
2017-09-03T14:20:16.541Z,43.67
2017-09-03T14:22:44.054Z,44.27
2017-09-03T14:25:11.518Z,44.64
2017-09-03T14:27:39.029Z,45.41
2017-09-03T14:30:06.557Z,46.09
2017-09-03T14:32:34.021Z,45.63
2017-09-03T14:35:01.505Z,46.27
2017-09-03T14:37:28.986Z,45.46
2017-09-03T14:39:56.935Z,45.65
2017-09-03T14:42:24.429Z,46.03
2017-09-03T14:44:52.062Z,46.08
2017-09-03T14:47:19.543Z,45.25
2017-09-03T14:49:47.020Z,45.80
2017-09-03T14:52:15.487Z,45.05
2017-09-03T14:54:42.972Z,45.67
2017-09-03T14:57:11.179Z,46.65
2017-09-03T14:59:38.670Z,46.43
2017-09-03T15:02:06.192Z,47.35
2017-09-03T15:04:33.687Z,47.22
2017-09-03T15:07:01.222Z,47.27
2017-09-03T15:09:28.762Z,47.32
2017-09-03T15:11:56.269Z,47.91
2017-09-03T15:14:23.770Z,48.63
2017-09-03T15:16:51.248Z,48.12
2017-09-03T15:19:18.733Z,47.96
2017-09-03T15:21:46.263Z,47.57
2017-09-03T15:24:13.758Z,46.51
2017-09-03T15:26:41.263Z,45.04
2017-09-03T15:29:08.769Z,44.04
2017-09-03T15:31:36.250Z,43.10
2017-09-03T15:34:03.784Z,42.32
2017-09-03T15:36:31.265Z,41.34
2017-09-03T15:38:58.781Z,40.06
2017-09-03T15:41:26.260Z,39.36
2017-09-03T15:43:54.378Z,40.17
2017-09-03T15:46:21.861Z,40.38
2017-09-03T15:48:49.433Z,38.87
2017-09-03T15:51:16.963Z,38.20
2017-09-03T15:53:44.455Z,37.96
2017-09-03T15:56:11.919Z,38.53
2017-09-03T15:58:39.410Z,37.34
2017-09-03T16:01:07.538Z,37.29
2017-09-03T16:03:35.029Z,37.58
2017-09-03T16:06:02.518Z,36.99
2017-09-03T16:08:30.145Z,36.85
2017-09-03T16:10:58.394Z,37.67
2017-09-03T16:13:25.913Z,38.04
2017-09-03T16:15:53.435Z,38.69
2017-09-03T16:18:20.927Z,37.66
2017-09-03T16:20:48.448Z,37.23
2017-09-03T16:23:15.909Z,35.93
2017-09-03T16:25:43.407Z,35.76
2017-09-03T16:28:10.921Z,36.58
2017-09-03T16:30:40.211Z,36.24
2017-09-03T16:33:07.763Z,37.16
2017-09-03T16:35:35.292Z,37.71
2017-09-03T16:38:02.817Z,36.87
2017-09-03T16:40:30.309Z,37.68
2017-09-03T16:42:57.928Z,34.85
2017-09-03T16:45:25.405Z,35.10
2017-09-03T16:47:52.905Z,36.22
2017-09-03T16:50:20.391Z,37.22
2017-09-03T16:52:47.881Z,35.74
2017-09-03T16:55:15.401Z,35.60
2017-09-03T16:57:42.879Z,37.44
2017-09-03T17:00:10.390Z,37.79
2017-09-03T17:02:37.857Z,38.02
2017-09-03T17:05:05.817Z,38.16
2017-09-03T17:07:33.311Z,40.46
2017-09-03T17:10:00.783Z,40.88
2017-09-03T17:12:28.318Z,41.24
2017-09-03T17:14:55.798Z,42.31
2017-09-03T17:17:29.209Z,41.69
2017-09-03T17:19:56.754Z,43.48
2017-09-03T17:22:24.674Z,43.84
2017-09-03T17:24:52.184Z,43.94
2017-09-03T17:27:19.690Z,44.72
2017-09-03T17:29:47.185Z,45.44
2017-09-03T17:32:14.703Z,45.82
2017-09-03T17:34:47.669Z,45.67
2017-09-03T17:37:19.554Z,46.12
2017-09-03T17:39:47.054Z,47.03
2017-09-03T17:42:24.555Z,47.64
2017-09-03T17:44:52.062Z,48.27
2017-09-03T17:47:19.562Z,48.57
2017-09-03T17:49:47.076Z,48.71
2017-09-03T17:52:14.614Z,50.23
2017-09-03T17:54:42.141Z,51.14
2017-09-03T17:57:10.087Z,51.69
2017-09-03T17:59:37.602Z,52.53
2017-09-03T18:02:05.107Z,53.09
2017-09-03T18:04:33.123Z,52.61
2017-09-03T18:07:00.605Z,52.92
2017-09-03T18:09:28.089Z,52.37
2017-09-03T18:11:56.353Z,52.35
2017-09-03T18:14:28.707Z,52.41
2017-09-03T18:16:56.214Z,52.70
2017-09-03T18:19:24.355Z,52.45
2017-09-03T18:21:53.049Z,52.75
2017-09-03T18:24:20.534Z,53.50
2017-09-03T18:26:48.067Z,53.65
2017-09-03T18:29:18.084Z,53.51
2017-09-03T18:31:45.926Z,53.97
2017-09-03T18:34:13.402Z,54.34
2017-09-03T18:36:45.282Z,54.17
2017-09-03T18:42:15.169Z,54.52
2017-09-03T18:44:42.632Z,54.17
2017-09-03T18:47:10.782Z,54.86
2017-09-03T18:49:41.707Z,55.14
2017-09-03T18:52:10.990Z,54.94
2017-09-03T18:54:39.399Z,55.32
2017-09-03T18:57:06.889Z,55.43
2017-09-03T18:59:34.365Z,55.60
2017-09-03T19:02:01.858Z,56.06
2017-09-03T19:04:35.399Z,56.23
2017-09-03T19:07:02.899Z,56.13
2017-09-03T19:09:36.115Z,56.38
2017-09-03T19:12:03.576Z,56.23
2017-09-03T19:14:31.083Z,56.62
2017-09-03T19:16:58.634Z,56.68
2017-09-03T19:19:26.103Z,57.05
2017-09-03T19:21:54.409Z,58.18
2017-09-03T19:24:21.880Z,59.06
2017-09-03T19:26:49.377Z,59.19
2017-09-03T19:29:18.315Z,59.26
2017-09-03T19:31:45.830Z,58.89
2017-09-03T19:34:13.311Z,58.68
2017-09-03T19:36:40.778Z,58.45
2017-09-03T19:39:08.256Z,58.04
2017-09-03T19:41:35.721Z,58.50
2017-09-03T19:44:03.239Z,58.11
2017-09-03T19:46:30.711Z,59.37
2017-09-03T19:48:58.198Z,59.05
2017-09-03T19:51:25.666Z,60.58
2017-09-03T19:53:53.165Z,60.58
2017-09-03T19:56:20.691Z,60.93
2017-09-03T19:58:48.157Z,60.78
2017-09-03T20:01:15.668Z,60.33
2017-09-03T20:03:43.146Z,59.94
2017-09-03T20:06:10.659Z,60.74
2017-09-03T20:08:38.122Z,62.44
2017-09-03T20:11:05.611Z,63.98
2017-09-03T20:13:33.101Z,64.99
2017-09-03T20:16:00.592Z,65.06
2017-09-03T20:18:28.124Z,65.80
2017-09-03T20:20:55.594Z,66.64
2017-09-03T20:23:23.082Z,67.19
2017-09-03T20:25:50.550Z,67.11
2017-09-03T20:28:18.043Z,66.95
2017-09-03T20:30:45.541Z,67.13
2017-09-03T20:33:13.082Z,67.33
2017-09-03T20:35:40.550Z,67.54
2017-09-03T20:38:08.254Z,67.57
2017-09-03T20:40:35.728Z,67.71
2017-09-03T20:43:03.241Z,67.61
2017-09-03T20:45:30.764Z,67.56
2017-09-03T20:47:58.231Z,67.64
2017-09-03T20:50:25.743Z,67.98
2017-09-03T20:52:53.228Z,68.40
2017-09-03T20:55:20.842Z,68.50
2017-09-03T20:57:48.295Z,68.95
2017-09-03T21:00:15.762Z,68.64
2017-09-03T21:02:43.260Z,68.55
2017-09-03T21:05:10.739Z,68.80
2017-09-03T21:07:38.230Z,68.85
2017-09-03T21:10:05.687Z,68.55
2017-09-03T21:12:33.177Z,68.73
2017-09-03T21:15:00.671Z,68.74
2017-09-03T21:17:28.172Z,68.96
2017-09-03T21:19:55.633Z,68.85
2017-09-03T21:22:23.278Z,68.82
2017-09-03T21:24:50.739Z,69.04
2017-09-03T21:27:18.225Z,69.32
2017-09-03T21:29:45.702Z,69.33
2017-09-03T21:32:13.175Z,69.48
2017-09-03T21:34:41.749Z,69.64
2017-09-03T21:37:09.209Z,69.60
2017-09-03T21:39:36.695Z,69.52
2017-09-03T21:42:04.146Z,69.56
2017-09-03T21:44:31.787Z,69.85
2017-09-03T21:46:59.268Z,69.86
2017-09-03T21:49:26.727Z,69.98
2017-09-03T21:51:54.229Z,70.05
2017-09-03T21:54:21.700Z,69.77
2017-09-03T21:56:49.174Z,70.01
2017-09-03T21:59:16.661Z,69.89
2017-09-03T22:01:44.142Z,70.39
2017-09-03T22:04:11.635Z,70.61
2017-09-03T22:06:39.089Z,70.81
2017-09-03T22:09:06.580Z,70.70
2017-09-03T22:11:34.039Z,70.67
2017-09-03T22:14:01.518Z,70.79
2017-09-03T22:16:28.981Z,70.39
2017-09-03T22:18:56.487Z,69.98
2017-09-03T22:21:23.946Z,69.88
2017-09-03T22:23:51.439Z,69.96
2017-09-03T22:26:18.924Z,69.96
2017-09-03T22:28:46.389Z,70.66
2017-09-03T22:31:13.878Z,71.22
2017-09-03T22:33:41.331Z,71.79
2017-09-03T22:36:08.838Z,71.56
2017-09-03T22:38:36.302Z,71.19
2017-09-03T22:41:04.448Z,70.91
2017-09-03T22:43:31.929Z,70.64
2017-09-03T22:45:59.415Z,70.26
2017-09-03T22:48:26.878Z,70.46
2017-09-03T22:50:54.414Z,70.68
2017-09-03T22:53:21.902Z,70.72
2017-09-03T22:55:49.362Z,71.08
2017-09-03T22:58:16.851Z,71.28
2017-09-03T23:00:44.302Z,71.24
2017-09-03T23:03:11.804Z,71.35
2017-09-03T23:05:39.266Z,71.71
2017-09-03T23:08:06.884Z,71.43
2017-09-03T23:10:34.334Z,71.12
2017-09-03T23:13:01.809Z,71.00
2017-09-03T23:15:29.294Z,70.85
2017-09-03T23:17:56.795Z,71.08
2017-09-03T23:20:24.309Z,71.73
2017-09-03T23:22:51.770Z,71.58
2017-09-03T23:25:19.241Z,71.31
2017-09-03T23:27:46.697Z,71.06
2017-09-03T23:30:14.182Z,70.95
2017-09-03T23:32:41.644Z,71.42
2017-09-03T23:35:09.232Z,71.36
2017-09-03T23:37:36.686Z,71.41
2017-09-03T23:40:05.078Z,71.77
2017-09-03T23:42:32.635Z,71.80
2017-09-03T23:45:00.085Z,71.75
2017-09-03T23:47:27.569Z,72.23
2017-09-03T23:49:55.051Z,72.59
2017-09-03T23:52:22.830Z,72.47
2017-09-03T23:54:50.290Z,72.51
2017-09-03T23:57:17.773Z,72.39
2017-09-03T23:59:45.242Z,72.51
